Time;durP1;ratioP1;P1;durP2;ratioP2;P2;SDS_P1;SDS_P2;PMS_P1;PMS_P2;Temp;Humidity;BMP_temperature;BMP_pressure;BME280_temperature;BME280_humidity;BME280_pressure;Samples;Min_cycle;Max_cycle;Signal;HPM_P1;HPM_P2
2023/09/03 16:43:46;;;;;;;3.45;1.15;;;;;;;;;;5133334;27;20182;-88
2023/09/03 16:46:31;;;;;;;4.45;1.60;;;;;;;;;;5114549;28;20047;-89
2023/09/03 16:49:15;;;;;;;3.47;1.50;;;;;;;;;;5118098;28;20517;-92
2023/09/03 16:52:00;;;;;;;3.28;1.30;;;;;;;;;;5129269;28;20046;-94
2023/09/03 16:54:44;;;;;;;3.20;1.40;;;;;;;;;;5111871;28;20089;-93
2023/09/03 16:57:30;;;;;;;4.93;1.60;;;;;;;;;;5113933;28;20447;-93
2023/09/03 17:00:15;;;;;;;3.40;1.60;;;;;;;;;;5096596;28;20035;-93
2023/09/03 17:02:59;;;;;;;3.10;1.45;;;;;;;;;;5105473;28;20089;-92
2023/09/03 17:05:44;;;;;;;2.92;1.70;;;;;;;;;;5107932;28;20100;-90
2023/09/03 17:08:28;;;;;;;3.85;2.08;;;;;;;;;;5109199;28;20501;-91
2023/09/03 17:11:13;;;;;;;3.88;1.98;;;;;;;;;;5113180;28;20059;-90
2023/09/03 17:13:57;;;;;;;4.05;1.70;;;;;;;;;;5110819;28;20046;-93
2023/09/03 17:16:42;;;;;;;3.92;1.48;;;;;;;;;;5121520;28;20113;-93
2023/09/03 17:19:26;;;;;;;2.85;1.30;;;;;;;;;;5107763;28;20054;-92
2023/09/03 17:22:11;;;;;;;3.80;1.55;;;;;;;;;;5108642;28;20096;-93
2023/09/03 17:24:55;;;;;;;2.67;1.40;;;;;;;;;;5097653;28;20071;-92
2023/09/03 17:27:40;;;;;;;2.47;1.50;;;;;;;;;;5096319;28;20046;-93
2023/09/03 17:30:24;;;;;;;4.90;1.60;;;;;;;;;;5111114;28;20039;-93
2023/09/03 17:33:09;;;;;;;3.58;1.50;;;;;;;;;;5112557;28;20038;-93
2023/09/03 17:35:54;;;;;;;2.13;1.45;;;;;;;;;;5095268;28;20168;-91
2023/09/03 17:38:38;;;;;;;2.88;1.52;;;;;;;;;;5113029;28;20042;-92
2023/09/03 17:41:23;;;;;;;3.63;1.63;;;;;;;;;;5093353;28;20087;-94
2023/09/03 17:44:08;;;;;;;3.50;1.35;;;;;;;;;;5125886;28;20053;-95
2023/09/03 17:46:52;;;;;;;3.92;1.60;;;;;;;;;;5125289;28;20497;-88
2023/09/03 17:49:37;;;;;;;3.53;1.40;;;;;;;;;;5094073;28;20047;-93
2023/09/03 17:52:21;;;;;;;3.42;1.40;;;;;;;;;;5123550;28;20041;-93
2023/09/03 17:55:06;;;;;;;3.10;1.42;;;;;;;;;;5116073;28;20119;-94
2023/09/03 17:57:51;;;;;;;5.57;1.80;;;;;;;;;;5100909;28;20035;-94
2023/09/03 18:00:36;;;;;;;3.15;1.52;;;;;;;;;;5099119;28;20093;-93
2023/09/03 18:03:21;;;;;;;4.10;1.70;;;;;;;;;;5108080;28;20080;-93
2023/09/03 18:06:10;;;;;;;2.75;1.38;;;;;;;;;;5095023;28;20594;-93
2023/09/03 18:08:55;;;;;;;3.70;1.60;;;;;;;;;;5111267;28;20096;-92
2023/09/03 18:11:39;;;;;;;7.20;3.55;;;;;;;;;;5122627;28;20070;-95
2023/09/03 18:14:24;;;;;;;5.47;3.53;;;;;;;;;;5108886;28;20101;-93
2023/09/03 18:17:09;;;;;;;8.88;5.90;;;;;;;;;;5103874;28;20043;-92
2023/09/03 18:19:54;;;;;;;10.23;6.38;;;;;;;;;;5076629;28;20487;-91
2023/09/03 18:22:39;;;;;;;7.97;5.28;;;;;;;;;;5091071;28;20039;-90
2023/09/03 18:25:24;;;;;;;10.32;6.22;;;;;;;;;;5081445;28;20043;-93
2023/09/03 18:28:08;;;;;;;7.65;4.47;;;;;;;;;;5106638;28;20084;-92
2023/09/03 18:30:53;;;;;;;5.70;3.50;;;;;;;;;;5090788;28;20039;-92
2023/09/03 18:33:39;;;;;;;5.93;2.72;;;;;;;;;;5090019;28;20096;-95
2023/09/03 18:36:23;;;;;;;4.47;1.98;;;;;;;;;;5090929;28;20039;-95
2023/09/03 18:39:08;;;;;;;4.82;2.80;;;;;;;;;;5102779;28;20038;-91
2023/09/03 18:41:53;;;;;;;7.03;3.55;;;;;;;;;;5104323;28;20122;-90
2023/09/03 18:44:37;;;;;;;5.50;3.75;;;;;;;;;;5110609;28;20152;-89
2023/09/03 18:47:22;;;;;;;6.68;3.58;;;;;;;;;;5081453;28;20174;-90
2023/09/03 18:50:07;;;;;;;4.43;3.40;;;;;;;;;;5074725;28;20046;-92
2023/09/03 18:52:52;;;;;;;3.80;2.92;;;;;;;;;;5075029;28;20101;-92
2023/09/03 18:55:37;;;;;;;5.38;2.53;;;;;;;;;;5076656;28;20043;-92
2023/09/03 18:58:23;;;;;;;3.65;2.28;;;;;;;;;;5096693;28;20549;-93
2023/09/03 19:01:08;;;;;;;4.65;2.10;;;;;;;;;;5082022;28;20050;-90
2023/09/03 19:03:53;;;;;;;4.68;2.13;;;;;;;;;;5092473;28;20039;-91
2023/09/03 19:06:37;;;;;;;4.28;2.05;;;;;;;;;;5079278;28;20112;-91
2023/09/03 19:09:22;;;;;;;4.45;1.67;;;;;;;;;;5110007;28;20088;-91
2023/09/03 19:12:09;;;;;;;3.08;2.10;;;;;;;;;;5096336;28;20421;-91
2023/09/03 19:14:54;;;;;;;4.63;1.98;;;;;;;;;;5109526;28;20042;-89
2023/09/03 19:17:39;;;;;;;3.63;1.95;;;;;;;;;;5085606;28;20051;-91
2023/09/03 19:20:24;;;;;;;3.40;1.90;;;;;;;;;;5099634;28;20520;-92
2023/09/03 19:23:11;;;;;;;4.57;2.13;;;;;;;;;;5078122;28;20047;-92
2023/09/03 19:25:56;;;;;;;3.13;2.00;;;;;;;;;;5094106;28;20093;-92
2023/09/03 19:28:40;;;;;;;5.10;2.28;;;;;;;;;;5096801;28;20444;-92
2023/09/03 19:31:25;;;;;;;4.82;2.15;;;;;;;;;;5077242;28;20074;-91
2023/09/03 19:34:10;;;;;;;6.43;2.65;;;;;;;;;;5089758;28;20119;-89
2023/09/03 19:36:54;;;;;;;4.53;3.17;;;;;;;;;;5084456;28;20043;-90
2023/09/03 19:39:39;;;;;;;3.95;2.33;;;;;;;;;;5106897;28;20108;-90
2023/09/03 19:42:24;;;;;;;5.40;2.50;;;;;;;;;;5096811;28;20066;-93
2023/09/03 19:45:09;;;;;;;4.07;2.60;;;;;;;;;;5109134;28;20085;-85
2023/09/03 19:48:14;;;;;;;4.75;2.80;;;;;;;;;;5088724;28;20085;-90
2023/09/03 19:51:00;;;;;;;5.22;3.15;;;;;;;;;;5103978;28;20047;-90
2023/09/03 19:53:46;;;;;;;4.13;2.53;;;;;;;;;;5081818;28;20039;-91
2023/09/03 19:56:31;;;;;;;3.60;2.45;;;;;;;;;;5060273;28;20835;-91
2023/09/03 19:59:15;;;;;;;4.70;3.20;;;;;;;;;;5079836;28;20094;-89
2023/09/03 20:02:01;;;;;;;3.97;2.80;;;;;;;;;;5106989;28;20053;-91
2023/09/03 20:04:46;;;;;;;5.25;3.33;;;;;;;;;;5102576;28;20039;-91
2023/09/03 20:07:30;;;;;;;4.22;2.67;;;;;;;;;;5100754;28;20046;-92
2023/09/03 20:10:15;;;;;;;5.20;3.50;;;;;;;;;;5095513;28;20441;-90
2023/09/03 20:12:59;;;;;;;4.40;3.10;;;;;;;;;;5109096;28;20095;-90
2023/09/03 20:15:44;;;;;;;4.68;3.30;;;;;;;;;;5092220;28;20049;-92
2023/09/03 20:18:29;;;;;;;4.93;2.85;;;;;;;;;;5073809;28;20097;-91
2023/09/03 20:21:15;;;;;;;8.18;2.90;;;;;;;;;;5089908;28;20117;-87
2023/09/03 20:23:59;;;;;;;4.88;3.05;;;;;;;;;;5074646;28;20043;-91
2023/09/03 20:26:44;;;;;;;4.93;2.95;;;;;;;;;;5089156;28;20719;-90
2023/09/03 20:29:31;;;;;;;5.22;3.00;;;;;;;;;;5089181;28;20177;-91
2023/09/03 20:32:16;;;;;;;4.82;3.63;;;;;;;;;;5097938;28;20050;-87
2023/09/03 20:35:01;;;;;;;4.40;3.33;;;;;;;;;;5089160;28;20465;-92
2023/09/03 20:37:45;;;;;;;5.18;3.15;;;;;;;;;;5087350;28;20034;-93
2023/09/03 20:40:31;;;;;;;5.38;3.22;;;;;;;;;;5098379;28;20035;-92
2023/09/03 20:43:16;;;;;;;6.43;3.22;;;;;;;;;;5092230;28;20403;-89
2023/09/03 20:46:01;;;;;;;4.88;3.50;;;;;;;;;;5109049;28;20042;-90
2023/09/03 20:48:46;;;;;;;5.28;3.25;;;;;;;;;;5099907;28;20111;-92
2023/09/03 20:51:31;;;;;;;5.65;3.33;;;;;;;;;;5079041;28;20038;-92
2023/09/03 20:54:18;;;;;;;6.60;3.50;;;;;;;;;;5081315;28;20042;-91
2023/09/03 20:57:03;;;;;;;5.80;3.60;;;;;;;;;;5077322;28;20043;-91
2023/09/03 20:59:48;;;;;;;6.82;4.07;;;;;;;;;;5091426;28;20097;-89
2023/09/03 21:02:33;;;;;;;6.38;3.78;;;;;;;;;;5101391;28;20050;-92
2023/09/03 21:05:17;;;;;;;5.30;3.50;;;;;;;;;;5089155;28;20602;-93
2023/09/03 21:08:02;;;;;;;4.40;3.40;;;;;;;;;;5088789;28;20047;-92
2023/09/03 21:10:56;;;;;;;7.07;3.42;;;;;;;;;;5088653;28;20434;-92
2023/09/03 21:13:41;;;;;;;6.30;4.03;;;;;;;;;;5089683;28;20119;-93
2023/09/03 21:16:26;;;;;;;4.57;3.88;;;;;;;;;;5091727;28;20073;-93
2023/09/03 21:19:10;;;;;;;4.70;3.70;;;;;;;;;;5080468;28;20039;-92
2023/09/03 21:21:55;;;;;;;6.00;3.83;;;;;;;;;;5111236;28;20097;-92
2023/09/03 21:24:39;;;;;;;4.35;3.65;;;;;;;;;;5110840;28;20043;-94
2023/09/03 21:27:24;;;;;;;7.72;4.88;;;;;;;;;;5109197;28;20089;-91
2023/09/03 21:30:09;;;;;;;7.40;4.43;;;;;;;;;;5114210;28;20504;-94
2023/09/03 21:32:54;;;;;;;6.05;3.60;;;;;;;;;;5097979;28;20046;-93
2023/09/03 21:35:38;;;;;;;5.15;4.00;;;;;;;;;;5079553;28;20043;-93
2023/09/03 21:38:23;;;;;;;7.13;4.20;;;;;;;;;;5102610;28;20031;-88
2023/09/03 21:41:11;;;;;;;7.93;4.03;;;;;;;;;;5099902;28;20039;-93
2023/09/03 21:44:12;;;;;;;7.30;4.63;;;;;;;;;;5095045;28;20074;-93
2023/09/03 21:46:56;;;;;;;6.18;4.68;;;;;;;;;;5079981;28;20058;-92
2023/09/03 21:49:41;;;;;;;7.82;3.72;;;;;;;;;;5079150;28;20120;-95
2023/09/03 21:52:28;;;;;;;6.88;3.90;;;;;;;;;;5079482;28;20050;-89
2023/09/03 21:55:12;;;;;;;5.85;3.90;;;;;;;;;;5094839;28;20070;-92
2023/09/03 21:57:57;;;;;;;4.72;3.53;;;;;;;;;;5095082;28;20043;-93
2023/09/03 22:00:41;;;;;;;6.90;4.22;;;;;;;;;;5079025;28;20089;-94
2023/09/03 22:03:26;;;;;;;5.55;3.90;;;;;;;;;;5094543;28;20054;-87
2023/09/03 22:06:12;;;;;;;5.32;3.80;;;;;;;;;;5094800;28;20043;-94
2023/09/03 22:08:57;;;;;;;5.82;4.25;;;;;;;;;;5094550;28;20035;-92
2023/09/03 22:11:42;;;;;;;7.97;4.63;;;;;;;;;;5080053;28;20119;-94
2023/09/03 22:14:26;;;;;;;7.85;4.90;;;;;;;;;;5094577;28;20502;-93
2023/09/03 22:17:11;;;;;;;5.05;3.58;;;;;;;;;;5094229;28;20153;-87
2023/09/03 22:19:56;;;;;;;5.88;4.30;;;;;;;;;;5078615;28;20039;-91
2023/09/03 22:22:41;;;;;;;5.80;4.07;;;;;;;;;;5078734;28;20115;-92
2023/09/03 22:25:25;;;;;;;5.35;4.10;;;;;;;;;;5078933;28;20085;-93
2023/09/03 22:28:10;;;;;;;6.65;3.95;;;;;;;;;;5079090;28;20047;-94
2023/09/03 22:30:55;;;;;;;5.28;3.80;;;;;;;;;;5078643;28;20038;-94
2023/09/03 22:33:40;;;;;;;5.90;3.80;;;;;;;;;;5093567;28;20078;-92
2023/09/03 22:36:24;;;;;;;6.47;3.97;;;;;;;;;;5094560;28;20511;-93
2023/09/03 22:39:09;;;;;;;8.63;4.75;;;;;;;;;;5091762;28;20038;-93
2023/09/03 22:41:55;;;;;;;5.50;4.75;;;;;;;;;;5091072;28;20039;-94
2023/09/03 22:44:40;;;;;;;5.80;4.07;;;;;;;;;;5058180;28;20420;-92
2023/09/03 22:47:27;;;;;;;7.13;4.30;;;;;;;;;;5073809;28;20643;-92
2023/09/03 22:50:11;;;;;;;9.15;5.13;;;;;;;;;;5073512;28;20035;-92
2023/09/03 22:52:56;;;;;;;7.05;4.88;;;;;;;;;;5072829;28;20207;-92
2023/09/03 22:55:41;;;;;;;8.15;4.70;;;;;;;;;;5073089;28;20052;-93
2023/09/03 22:58:26;;;;;;;8.15;4.40;;;;;;;;;;5073313;28;20180;-91
2023/09/03 23:01:10;;;;;;;7.07;4.65;;;;;;;;;;5073179;28;20043;-94
2023/09/03 23:03:54;;;;;;;5.55;4.45;;;;;;;;;;5072812;28;20234;-92
2023/09/03 23:06:39;;;;;;;5.97;4.65;;;;;;;;;;5071836;28;20123;-92
2023/09/03 23:09:24;;;;;;;5.97;4.03;;;;;;;;;;5073178;28;20039;-92
2023/09/03 23:12:09;;;;;;;5.30;4.07;;;;;;;;;;5073123;28;20040;-94
2023/09/03 23:14:53;;;;;;;5.70;4.45;;;;;;;;;;5070799;28;20061;-94
2023/09/03 23:17:38;;;;;;;9.02;4.45;;;;;;;;;;5077997;28;20127;-88
2023/09/03 23:20:23;;;;;;;6.13;4.50;;;;;;;;;;5066983;28;20085;-93
2023/09/03 23:23:07;;;;;;;5.68;4.55;;;;;;;;;;5072932;28;20043;-92
2023/09/03 23:25:52;;;;;;;7.90;4.35;;;;;;;;;;5069354;28;20047;-91
2023/09/03 23:28:36;;;;;;;6.88;4.18;;;;;;;;;;5072956;28;20412;-89
2023/09/03 23:31:21;;;;;;;4.72;3.72;;;;;;;;;;5072810;28;20093;-93
2023/09/03 23:34:05;;;;;;;4.80;3.97;;;;;;;;;;5072747;28;20040;-93
2023/09/03 23:36:50;;;;;;;4.18;3.35;;;;;;;;;;5072907;28;20047;-93
2023/09/03 23:39:34;;;;;;;4.50;3.05;;;;;;;;;;5062364;28;20120;-94
2023/09/03 23:42:20;;;;;;;6.22;3.85;;;;;;;;;;5077584;28;20047;-92
2023/09/03 23:45:05;;;;;;;4.32;3.22;;;;;;;;;;5091359;28;20097;-93
2023/09/03 23:47:50;;;;;;;4.88;3.45;;;;;;;;;;5092079;28;20089;-93
2023/09/03 23:50:34;;;;;;;4.72;3.65;;;;;;;;;;5092876;28;20055;-93
2023/09/03 23:53:22;;;;;;;5.75;3.33;;;;;;;;;;5091874;28;20043;-92
2023/09/03 23:56:06;;;;;;;4.70;3.35;;;;;;;;;;5092517;28;20039;-94
2023/09/03 23:58:51;;;;;;;5.43;4.00;;;;;;;;;;5092251;28;20038;-94
